»·PEaware :: UAL1616 KSNA-KSFO

UAL1616 :: KSNA-KSFO

FLIGHT INFORMATION

Flight Status: Arrived
Operator:
United Airlines
More flights by this operator :: More flights under this callsign
Pilot: Saso K. (7898)
Aircraft: AIRBUS A320
(A320)
More flights by this aircraft type
Origin: KSNA John Wayne-Orange Co
United States
Destination: KSFO San Francisco Intl
United States
More flights between these airports :: More routes between these airports
Route: CHANL3 RZS STOKD SERFR SERFR2
File this flight plan on PilotEdge
Remarks: EET / KZOA0034
Altitude:
(Current/Filed)
36,000ft
Speed:
(Current/Filed)
436kts
Departed: 31-Oct-17 03:20 PM
Arrived: 31-Oct-17 04:26 PM
Distance/Time
Traveled:
323nm/1:05
Distance/Time
To Go:
Arrived

Flight Plot

Page will automatically refresh every two minutes.


Map Options




Map Legend


Flown Route
Filed Route
Departure Airport
Arrival Airport
Navaid (VOR, NDB)
Fix

Horizontal Profiles

Position Reports

Time Latitude Longitude Heading Altitude Ground
Speed
31-Oct-17 14:51 33.681105 -117.861218 118 42ft 0kts
31-Oct-17 14:52 33.681105 -117.861218 118 42ft 0kts
31-Oct-17 14:53 33.681105 -117.861218 118 42ft 0kts
31-Oct-17 14:54 33.681105 -117.861218 118 42ft 0kts
31-Oct-17 14:55 33.681106 -117.861218 118 42ft 0kts
31-Oct-17 14:56 33.681106 -117.861218 118 42ft 0kts
31-Oct-17 14:57 33.681106 -117.861218 118 42ft 0kts
31-Oct-17 14:58 33.681106 -117.861218 118 42ft 0kts
31-Oct-17 14:59 33.681106 -117.861218 118 42ft 0kts
31-Oct-17 15:00 33.681106 -117.861218 118 42ft 0kts
31-Oct-17 15:01 33.681106 -117.861218 118 42ft 0kts
31-Oct-17 15:02 33.681106 -117.861218 118 42ft 0kts
31-Oct-17 15:03 33.681106 -117.861218 118 42ft 0kts
31-Oct-17 15:04 33.681106 -117.861218 118 42ft 0kts
31-Oct-17 15:05 33.681106 -117.861218 118 42ft 0kts
31-Oct-17 15:06 33.681106 -117.861218 118 42ft 0kts
31-Oct-17 15:07 33.681106 -117.861218 118 42ft 0kts
31-Oct-17 15:08 33.681106 -117.861218 118 42ft 0kts
31-Oct-17 15:09 33.681106 -117.861218 118 42ft 0kts
31-Oct-17 15:10 33.681106 -117.861218 118 42ft 0kts
31-Oct-17 15:11 33.681106 -117.861218 118 42ft 0kts
31-Oct-17 15:12 33.681106 -117.861218 118 42ft 0kts
31-Oct-17 15:13 33.681106 -117.861218 118 42ft 0kts
31-Oct-17 15:14 33.681211 -117.861450 118 42ft 2kts
31-Oct-17 15:15 33.681555 -117.861776 203 42ft 0kts
31-Oct-17 15:16 33.681621 -117.861729 209 42ft 0kts
31-Oct-17 15:17 33.681621 -117.861729 209 42ft 0kts
31-Oct-17 15:18 33.681621 -117.861729 209 42ft 0kts
31-Oct-17 15:19 33.681621 -117.861729 209 42ft 0kts
31-Oct-17 15:20 33.680595 -117.862496 242 44ft 7kts
31-Oct-17 15:21 33.681128 -117.864130 297 45ft 0kts
31-Oct-17 15:22 33.681128 -117.864130 297 45ft 0kts
31-Oct-17 15:23 33.681230 -117.864356 299 45ft 8kts
31-Oct-17 15:24 33.681505 -117.865150 211 45ft 0kts
31-Oct-17 15:25 33.680838 -117.865598 207 45ft 42kts
31-Oct-17 15:26 33.652645 -117.883738 206 1857ft 161kts
31-Oct-17 15:27 33.609680 -117.897010 189 3933ft 229kts
31-Oct-17 15:28 33.552842 -117.922531 214 6662ft 270kts
31-Oct-17 15:29 33.501392 -117.964735 214 9605ft 283kts
31-Oct-17 15:30 33.439036 -118.015051 214 11684ft 332kts
31-Oct-17 15:31 33.403147 -118.101092 263 14374ft 342kts
31-Oct-17 15:32 33.393821 -118.207936 263 16923ft 347kts
31-Oct-17 15:33 33.384142 -118.317965 263 19371ft 353kts
31-Oct-17 15:34 33.394357 -118.426430 304 21457ft 370kts
31-Oct-17 15:35 33.466883 -118.508866 312 23373ft 381kts
31-Oct-17 15:36 33.538807 -118.588659 312 25036ft 388kts
31-Oct-17 15:37 33.608072 -118.665576 311 26494ft 393kts
31-Oct-17 15:38 33.684849 -118.751006 311 27989ft 399kts
31-Oct-17 15:39 33.760013 -118.834846 311 29257ft 405kts
31-Oct-17 15:40 33.836929 -118.920855 311 30415ft 411kts
31-Oct-17 15:41 33.915849 -119.009338 311 31455ft 417kts
31-Oct-17 15:42 33.996347 -119.099816 311 32739ft 413kts
31-Oct-17 15:43 34.076626 -119.190321 311 34011ft 408kts
31-Oct-17 15:44 34.143976 -119.266439 311 34847ft 407kts
31-Oct-17 15:45 34.223330 -119.356357 311 35767ft 406kts
31-Oct-17 15:46 34.302804 -119.446637 311 36037ft 403kts
31-Oct-17 15:47 34.380071 -119.534646 311 36040ft 404kts
31-Oct-17 15:48 34.456019 -119.621369 311 36037ft 404kts
31-Oct-17 15:49 34.532122 -119.708568 311 36042ft 405kts
31-Oct-17 15:50 34.609294 -119.797055 310 36048ft 405kts
31-Oct-17 15:51 34.686824 -119.886282 311 36043ft 405kts
31-Oct-17 15:52 34.762808 -119.973969 311 36032ft 404kts
31-Oct-17 15:53 34.838526 -120.061626 310 36023ft 404kts
31-Oct-17 15:54 34.914757 -120.150142 314 36068ft 401kts
31-Oct-17 15:55 34.990060 -120.237663 322 36004ft 400kts
31-Oct-17 15:56 35.069245 -120.329940 322 36008ft 423kts
31-Oct-17 15:57 35.145043 -120.418603 322 36076ft 447kts
31-Oct-17 15:58 35.231213 -120.519769 322 36077ft 458kts
31-Oct-17 15:59 35.317236 -120.621076 322 36075ft 457kts
31-Oct-17 16:00 35.403371 -120.722832 321 36069ft 457kts
31-Oct-17 16:01 35.491535 -120.825139 326 36068ft 453kts
31-Oct-17 16:02 35.588158 -120.915193 328 36077ft 451kts
31-Oct-17 16:03 35.684646 -121.004951 329 36085ft 452kts
31-Oct-17 16:04 35.780445 -121.094355 329 36085ft 452kts
31-Oct-17 16:05 35.877218 -121.184947 330 36091ft 453kts
31-Oct-17 16:06 35.974150 -121.275998 330 34010ft 460kts
31-Oct-17 16:07 36.072232 -121.367253 332 31510ft 457kts
31-Oct-17 16:08 36.170446 -121.444295 334 29291ft 449kts
31-Oct-17 16:09 36.262895 -121.516605 333 27344ft 439kts
31-Oct-17 16:10 36.363311 -121.595341 333 25177ft 427kts
31-Oct-17 16:11 36.460303 -121.671532 332 23027ft 416kts
31-Oct-17 16:12 36.554571 -121.745938 331 20871ft 403kts
31-Oct-17 16:13 36.646453 -121.818689 331 18744ft 391kts
31-Oct-17 16:14 36.734085 -121.887827 335 16693ft 378kts
31-Oct-17 16:15 36.830024 -121.918919 349 14705ft 359kts
31-Oct-17 16:16 36.923045 -121.944929 349 12791ft 347kts
31-Oct-17 16:17 37.011678 -121.976442 344 10929ft 338kts
31-Oct-17 16:18 37.095107 -122.009063 345 9980ft 303kts
31-Oct-17 16:19 37.156681 -122.033094 345 8881ft 295kts
31-Oct-17 16:20 37.220793 -122.058187 344 7778ft 285kts
31-Oct-17 16:21 37.284539 -122.083186 344 6514ft 281kts
31-Oct-17 16:22 37.342356 -122.105922 344 5708ft 265kts
31-Oct-17 16:23 37.399595 -122.128441 343 4770ft 256kts
31-Oct-17 16:24 37.455208 -122.150247 345 4102ft 230kts
31-Oct-17 16:25 37.507979 -122.165785 346 4035ft 191kts
31-Oct-17 16:26 37.544770 -122.198270 299 3161ft 179kts
31-Oct-17 16:27 37.565917 -122.249071 297 1944ft 167kts
31-Oct-17 16:28 37.585492 -122.295875 297 1139ft 138kts
31-Oct-17 16:29 37.601518 -122.333880 298 469ft 126kts
31-Oct-17 16:30 37.616095 -122.368798 297 13ft 93kts
31-Oct-17 16:31 37.618957 -122.378147 266 29ft 0kts
31-Oct-17 16:32 37.618929 -122.380016 273 32ft 12kts
31-Oct-17 16:33 37.621054 -122.385345 297 32ft 20kts
31-Oct-17 16:34 37.622050 -122.391171 213 32ft 12kts
31-Oct-17 16:35 37.619666 -122.390430 118 32ft 11kts
31-Oct-17 16:36 37.620196 -122.389382 27 32ft 0kts
31-Oct-17 16:37 37.620196 -122.389382 27 32ft 0kts
31-Oct-17 16:38 37.620196 -122.389382 27 32ft 0kts
31-Oct-17 16:39 37.620196 -122.389382 27 32ft 0kts
31-Oct-17 16:40 37.620196 -122.389382 27 32ft 0kts
31-Oct-17 16:41 37.620196 -122.389382 27 32ft 0kts
31-Oct-17 16:42 37.620196 -122.389382 27 32ft 0kts
31-Oct-17 16:43 37.620196 -122.389382 27 32ft 0kts
31-Oct-17 16:44 37.620196 -122.389382 27 32ft 0kts
31-Oct-17 16:45 37.620196 -122.389382 27 32ft 0kts

Navigation Log

Ident Type
Flight plan parsing failed, navigation log unavailable